Time;durP1;ratioP1;P1;durP2;ratioP2;P2;SDS_P1;SDS_P2;PMS_P1;PMS_P2;Temp;Humidity;BMP_temperature;BMP_pressure;BME280_temperature;BME280_humidity;BME280_pressure;Samples;Min_cycle;Max_cycle;Signal;HPM_P1;HPM_P2
2022/12/06 00:00:54;;;;;;;13.15;4.60;;;;;;;;;;5009411;28;98732;-69
2022/12/06 00:03:21;;;;;;;11.15;4.80;;;;;;;;;;5005492;28;100278;-69
2022/12/06 00:05:47;;;;;;;12.45;4.88;;;;;;;;;;5004711;28;99591;-68
2022/12/06 00:08:14;;;;;;;9.52;4.35;;;;;;;;;;5007862;28;98488;-68
2022/12/06 00:10:40;;;;;;;6.18;4.50;;;;;;;;;;5015361;28;98622;-68
2022/12/06 00:13:06;;;;;;;9.90;4.63;;;;;;;;;;5014031;27;99739;-68
2022/12/06 00:15:35;;;;;;;15.55;5.20;;;;;;;;;;5010702;28;101059;-68
2022/12/06 00:18:01;;;;;;;11.35;4.78;;;;;;;;;;5004633;28;100383;-67
2022/12/06 00:20:28;;;;;;;11.85;6.03;;;;;;;;;;5015402;28;98615;-68
2022/12/06 00:22:54;;;;;;;13.02;5.22;;;;;;;;;;5011121;28;99658;-68
2022/12/06 00:25:21;;;;;;;14.90;5.53;;;;;;;;;;5007641;28;99691;-68
2022/12/06 00:27:47;;;;;;;13.55;5.10;;;;;;;;;;5014222;28;98565;-68
2022/12/06 00:30:13;;;;;;;10.88;5.80;;;;;;;;;;5010516;28;99222;-68
2022/12/06 00:32:39;;;;;;;9.95;5.30;;;;;;;;;;5015793;28;99755;-68
2022/12/06 00:35:06;;;;;;;10.18;4.82;;;;;;;;;;5011434;28;98560;-68
2022/12/06 00:37:32;;;;;;;9.13;4.95;;;;;;;;;;5012023;28;100170;-68
2022/12/06 00:39:58;;;;;;;10.02;4.72;;;;;;;;;;5012076;28;99275;-68
2022/12/06 00:42:25;;;;;;;11.82;5.00;;;;;;;;;;5014032;28;103274;-68
2022/12/06 00:44:52;;;;;;;9.40;5.00;;;;;;;;;;5004009;28;99872;-69
2022/12/06 00:47:18;;;;;;;12.77;4.63;;;;;;;;;;5011350;28;98831;-68
2022/12/06 00:49:44;;;;;;;7.88;5.03;;;;;;;;;;5011632;28;99953;-68
2022/12/06 00:52:11;;;;;;;15.88;4.70;;;;;;;;;;5010927;28;100222;-68
2022/12/06 00:54:37;;;;;;;12.50;5.20;;;;;;;;;;5014192;27;98816;-68
2022/12/06 00:57:03;;;;;;;6.90;4.38;;;;;;;;;;5012142;28;99207;-68
2022/12/06 00:59:30;;;;;;;12.20;4.93;;;;;;;;;;5012275;28;98569;-68
2022/12/06 01:01:56;;;;;;;11.18;4.57;;;;;;;;;;5011127;28;99243;-68
2022/12/06 01:04:22;;;;;;;19.23;5.35;;;;;;;;;;5013063;27;101191;-68
2022/12/06 01:06:49;;;;;;;12.65;5.00;;;;;;;;;;5011778;28;98848;-68
2022/12/06 01:09:15;;;;;;;11.45;4.85;;;;;;;;;;5009898;28;99206;-68
2022/12/06 01:11:41;;;;;;;11.25;4.72;;;;;;;;;;5011973;28;100668;-68
2022/12/06 01:14:07;;;;;;;14.23;5.05;;;;;;;;;;5010264;28;98598;-67
2022/12/06 01:16:34;;;;;;;15.02;4.75;;;;;;;;;;5013366;28;99098;-68
2022/12/06 01:19:02;;;;;;;10.30;5.00;;;;;;;;;;5006479;28;98678;-68
2022/12/06 01:21:28;;;;;;;14.55;4.88;;;;;;;;;;5011981;28;99398;-68
2022/12/06 01:23:55;;;;;;;11.52;4.65;;;;;;;;;;5010906;28;99340;-68
2022/12/06 01:26:23;;;;;;;9.63;4.40;;;;;;;;;;5011496;28;98678;-68
2022/12/06 01:28:49;;;;;;;12.85;4.55;;;;;;;;;;5010104;28;99357;-68
2022/12/06 01:31:15;;;;;;;15.23;4.55;;;;;;;;;;5020052;27;101668;-69
2022/12/06 01:33:42;;;;;;;8.77;3.83;;;;;;;;;;5010084;28;98650;-68
2022/12/06 01:36:14;;;;;;;12.68;4.57;;;;;;;;;;5011063;28;100835;-68
2022/12/06 01:38:40;;;;;;;13.27;4.50;;;;;;;;;;5012875;28;99431;-68
2022/12/06 01:41:06;;;;;;;15.98;5.28;;;;;;;;;;5003002;28;99343;-68
2022/12/06 01:43:37;;;;;;;15.98;4.38;;;;;;;;;;5010406;28;99507;-68
2022/12/06 01:46:09;;;;;;;12.52;4.60;;;;;;;;;;5015810;28;97983;-68
2022/12/06 01:48:36;;;;;;;14.68;4.38;;;;;;;;;;5008041;28;100955;-68
2022/12/06 01:51:04;;;;;;;13.35;4.20;;;;;;;;;;5009951;28;101042;-69
2022/12/06 01:53:31;;;;;;;12.57;3.95;;;;;;;;;;5014554;28;99512;-68
2022/12/06 01:55:57;;;;;;;13.50;4.43;;;;;;;;;;5013677;28;100293;-68
2022/12/06 01:58:30;;;;;;;11.65;4.30;;;;;;;;;;5004594;28;99534;-68
2022/12/06 02:00:56;;;;;;;12.15;4.50;;;;;;;;;;5002460;28;99022;-68
2022/12/06 02:03:24;;;;;;;18.33;4.50;;;;;;;;;;5025355;28;99759;-67
2022/12/06 02:05:51;;;;;;;13.85;4.75;;;;;;;;;;4996052;28;98622;-68
2022/12/06 02:08:19;;;;;;;12.25;4.72;;;;;;;;;;5023705;28;100372;-69
2022/12/06 02:10:45;;;;;;;12.95;4.07;;;;;;;;;;5027728;27;99473;-68
2022/12/06 02:13:12;;;;;;;15.13;4.28;;;;;;;;;;5014610;28;98746;-68
2022/12/06 02:15:50;;;;;;;13.77;3.83;;;;;;;;;;5017045;28;100290;-68
2022/12/06 02:18:20;;;;;;;14.90;4.60;;;;;;;;;;5009681;28;100523;-68
2022/12/06 02:20:55;;;;;;;11.20;4.43;;;;;;;;;;5011018;28;99067;-68
2022/12/06 02:23:40;;;;;;;16.27;4.00;;;;;;;;;;5017285;28;99362;-67
2022/12/06 02:26:06;;;;;;;8.90;4.03;;;;;;;;;;5009737;28;98599;-67
2022/12/06 02:28:35;;;;;;;25.02;4.35;;;;;;;;;;5017641;28;99418;-67
2022/12/06 02:31:11;;;;;;;10.32;4.30;;;;;;;;;;5003112;28;100690;-68
2022/12/06 02:33:45;;;;;;;15.65;3.83;;;;;;;;;;5025016;28;99254;-68
2022/12/06 02:36:24;;;;;;;14.32;3.85;;;;;;;;;;5019501;28;99203;-68
2022/12/06 02:38:53;;;;;;;20.23;3.83;;;;;;;;;;5023728;28;100074;-68
2022/12/06 02:41:22;;;;;;;14.02;3.70;;;;;;;;;;5000324;28;98594;-68
2022/12/06 02:44:02;;;;;;;8.48;3.72;;;;;;;;;;5014558;27;99531;-68
2022/12/06 02:46:31;;;;;;;13.50;3.80;;;;;;;;;;5018029;28;99934;-66
2022/12/06 02:48:58;;;;;;;19.90;3.92;;;;;;;;;;5018661;28;100374;-67
2022/12/06 02:51:25;;;;;;;7.00;3.00;;;;;;;;;;5007466;28;100557;-67
2022/12/06 02:53:52;;;;;;;15.27;4.60;;;;;;;;;;5010155;28;100015;-68
2022/12/06 02:56:19;;;;;;;12.85;3.42;;;;;;;;;;5016731;27;99337;-68
2022/12/06 02:58:45;;;;;;;12.25;3.95;;;;;;;;;;5016410;28;99581;-67
2022/12/06 03:01:41;;;;;;;7.00;3.63;;;;;;;;;;5012528;28;99292;-68
2022/12/06 03:04:07;;;;;;;14.07;4.00;;;;;;;;;;4993710;28;100294;-68
2022/12/06 03:06:43;;;;;;;16.42;3.80;;;;;;;;;;5009518;28;100609;-67
2022/12/06 03:09:35;;;;;;;8.70;2.78;;;;;;;;;;4995344;28;99252;-68
2022/12/06 03:12:14;;;;;;;12.73;2.92;;;;;;;;;;5020556;28;99839;-68
2022/12/06 03:14:59;;;;;;;10.05;3.00;;;;;;;;;;5015818;28;98613;-68
2022/12/06 03:17:26;;;;;;;10.10;2.90;;;;;;;;;;5006056;28;99881;-68
2022/12/06 03:19:58;;;;;;;7.53;3.40;;;;;;;;;;5002913;28;99968;-68
2022/12/06 03:22:45;;;;;;;9.85;3.55;;;;;;;;;;5010655;28;99423;-68
2022/12/06 03:25:11;;;;;;;10.18;2.75;;;;;;;;;;5016678;28;99159;-68
2022/12/06 03:27:38;;;;;;;8.77;3.00;;;;;;;;;;5011004;28;99932;-68
2022/12/06 03:30:08;;;;;;;10.52;3.00;;;;;;;;;;5027411;28;98784;-68
2022/12/06 03:32:36;;;;;;;8.00;3.60;;;;;;;;;;5012779;27;99941;-68
2022/12/06 03:35:04;;;;;;;8.75;3.40;;;;;;;;;;5004444;28;99317;-67
2022/12/06 03:37:31;;;;;;;8.57;3.25;;;;;;;;;;5009938;28;99742;-68
2022/12/06 03:40:18;;;;;;;12.23;3.45;;;;;;;;;;5016409;28;100531;-68
2022/12/06 03:42:46;;;;;;;10.65;3.47;;;;;;;;;;4997772;27;100142;-68
2022/12/06 03:45:13;;;;;;;11.57;2.90;;;;;;;;;;5022037;28;100508;-68
2022/12/06 03:47:45;;;;;;;5.72;2.47;;;;;;;;;;5006229;28;99844;-69
2022/12/06 03:50:17;;;;;;;7.13;2.60;;;;;;;;;;5002832;28;98674;-68
2022/12/06 03:52:43;;;;;;;7.10;3.03;;;;;;;;;;5015374;28;99187;-68
2022/12/06 03:55:09;;;;;;;10.13;3.10;;;;;;;;;;5016504;28;98549;-67
2022/12/06 03:57:36;;;;;;;5.72;3.03;;;;;;;;;;5018056;27;99208;-68
2022/12/06 04:00:03;;;;;;;4.63;2.10;;;;;;;;;;5012759;27;100111;-68
2022/12/06 04:02:30;;;;;;;6.25;3.67;;;;;;;;;;5012754;28;100257;-69
2022/12/06 04:04:56;;;;;;;8.55;3.00;;;;;;;;;;5014498;27;99401;-68
2022/12/06 04:07:22;;;;;;;6.95;2.90;;;;;;;;;;5017694;28;99475;-68
2022/12/06 04:09:51;;;;;;;6.40;2.65;;;;;;;;;;5018818;28;98817;-68
2022/12/06 04:15:04;;;;;;;5.15;2.42;;;;;;;;;;5011530;28;99627;-69
2022/12/06 04:20:14;;;;;;;13.45;3.63;;;;;;;;;;5020646;28;99762;-67
2022/12/06 04:25:26;;;;;;;7.55;2.30;;;;;;;;;;5004648;28;100572;-68
2022/12/06 04:38:52;;;;;;;9.32;2.53;;;;;;;;;;5016295;28;98714;-68
2022/12/06 04:44:03;;;;;;;7.20;2.50;;;;;;;;;;5006344;28;97810;-68
2022/12/06 04:46:30;;;;;;;8.15;2.60;;;;;;;;;;5013256;28;100922;-68
2022/12/06 04:48:56;;;;;;;7.63;2.40;;;;;;;;;;5004128;28;99483;-68
2022/12/06 04:51:23;;;;;;;6.60;2.05;;;;;;;;;;5006376;28;99489;-68
2022/12/06 04:53:50;;;;;;;6.68;2.05;;;;;;;;;;5010576;28;99855;-68
2022/12/06 04:56:16;;;;;;;7.70;2.65;;;;;;;;;;5008462;28;99628;-68
2022/12/06 04:58:43;;;;;;;7.90;1.88;;;;;;;;;;5022930;27;98507;-69
2022/12/06 05:01:09;;;;;;;6.50;1.98;;;;;;;;;;5019982;28;99502;-68
2022/12/06 05:03:36;;;;;;;8.27;2.17;;;;;;;;;;5007302;27;100123;-68
2022/12/06 05:06:09;;;;;;;12.20;2.40;;;;;;;;;;5008927;28;100610;-68
2022/12/06 05:08:35;;;;;;;5.40;2.20;;;;;;;;;;5017027;28;98735;-68
2022/12/06 05:11:01;;;;;;;6.07;2.20;;;;;;;;;;5017236;27;98940;-68
2022/12/06 05:13:27;;;;;;;6.00;2.00;;;;;;;;;;5026073;27;99537;-68
2022/12/06 05:15:58;;;;;;;6.65;2.17;;;;;;;;;;5018513;27;101436;-68
2022/12/06 05:18:24;;;;;;;7.60;2.47;;;;;;;;;;5013837;27;98573;-68
2022/12/06 05:20:59;;;;;;;8.95;2.33;;;;;;;;;;5017114;28;99292;-68
2022/12/06 05:23:25;;;;;;;3.60;1.98;;;;;;;;;;5020869;28;99991;-68
2022/12/06 05:25:56;;;;;;;5.70;2.15;;;;;;;;;;5031421;27;99165;-69
2022/12/06 05:28:22;;;;;;;9.25;2.17;;;;;;;;;;5019016;27;99582;-68
2022/12/06 05:30:49;;;;;;;8.20;2.45;;;;;;;;;;5010376;28;100129;-68
2022/12/06 05:33:15;;;;;;;5.25;1.92;;;;;;;;;;5014788;27;99450;-68
2022/12/06 05:35:41;;;;;;;3.88;2.08;;;;;;;;;;5029568;28;99965;-68
2022/12/06 05:38:08;;;;;;;7.25;1.90;;;;;;;;;;5012439;27;98668;-68
2022/12/06 05:40:34;;;;;;;6.57;2.47;;;;;;;;;;5011592;28;99204;-68
2022/12/06 05:43:00;;;;;;;4.78;1.92;;;;;;;;;;5014012;28;99811;-68
2022/12/06 05:45:26;;;;;;;10.35;1.67;;;;;;;;;;5011547;28;99152;-68
2022/12/06 05:47:53;;;;;;;4.35;1.90;;;;;;;;;;5011046;28;100567;-68
2022/12/06 05:50:19;;;;;;;3.88;1.70;;;;;;;;;;5011587;28;99276;-68
2022/12/06 05:52:45;;;;;;;7.00;2.20;;;;;;;;;;5011090;28;99253;-68
2022/12/06 05:55:11;;;;;;;4.80;1.90;;;;;;;;;;5010309;28;99470;-69
2022/12/06 05:57:38;;;;;;;5.18;1.67;;;;;;;;;;5010368;28;97863;-68
2022/12/06 06:00:12;;;;;;;5.22;1.90;;;;;;;;;;5011542;28;99737;-68
2022/12/06 06:02:38;;;;;;;5.85;2.00;;;;;;;;;;5009261;28;100412;-68
2022/12/06 06:05:05;;;;;;;6.57;2.28;;;;;;;;;;5013410;28;99552;-68
2022/12/06 06:07:31;;;;;;;5.10;1.40;;;;;;;;;;5009243;28;99798;-69
2022/12/06 06:09:58;;;;;;;4.50;1.85;;;;;;;;;;5026695;28;98793;-69
2022/12/06 06:12:25;;;;;;;6.82;1.60;;;;;;;;;;5020747;27;99198;-69
2022/12/06 06:14:52;;;;;;;5.97;2.28;;;;;;;;;;5011047;27;99496;-69
2022/12/06 06:17:18;;;;;;;6.68;1.45;;;;;;;;;;5007555;28;99504;-69
2022/12/06 06:19:44;;;;;;;5.00;1.58;;;;;;;;;;5010870;28;99623;-68
2022/12/06 06:22:17;;;;;;;6.30;1.95;;;;;;;;;;5016211;28;99852;-69
2022/12/06 06:24:44;;;;;;;5.30;1.92;;;;;;;;;;5024006;27;99318;-69
2022/12/06 06:27:10;;;;;;;8.70;2.15;;;;;;;;;;5017345;28;99154;-68
2022/12/06 06:29:36;;;;;;;6.65;2.20;;;;;;;;;;5026916;28;99474;-68
2022/12/06 06:32:11;;;;;;;7.55;1.90;;;;;;;;;;5016134;27;99812;-69
2022/12/06 06:34:37;;;;;;;4.45;1.70;;;;;;;;;;5006270;28;100600;-68
2022/12/06 06:37:04;;;;;;;10.05;2.03;;;;;;;;;;5020601;28;99046;-69
2022/12/06 06:39:30;;;;;;;6.22;1.92;;;;;;;;;;5007925;28;98856;-68
2022/12/06 06:41:56;;;;;;;5.13;1.92;;;;;;;;;;5008580;28;99403;-68
2022/12/06 06:44:23;;;;;;;6.25;1.75;;;;;;;;;;5007426;28;98626;-68
2022/12/06 06:46:49;;;;;;;9.00;2.10;;;;;;;;;;5013952;28;99118;-69
2022/12/06 06:49:17;;;;;;;6.03;2.00;;;;;;;;;;5008550;28;99027;-69
2022/12/06 06:51:44;;;;;;;4.22;1.63;;;;;;;;;;5008375;28;99682;-69
2022/12/06 06:54:11;;;;;;;6.22;2.30;;;;;;;;;;5006376;28;100388;-68
2022/12/06 06:56:38;;;;;;;8.52;2.20;;;;;;;;;;5006319;28;98699;-69
2022/12/06 06:59:04;;;;;;;3.40;2.08;;;;;;;;;;5009676;28;99407;-69
2022/12/06 07:01:30;;;;;;;3.28;1.90;;;;;;;;;;5011488;27;101262;-68
2022/12/06 07:03:57;;;;;;;11.07;2.35;;;;;;;;;;5005362;28;99084;-69
2022/12/06 07:06:23;;;;;;;5.75;2.22;;;;;;;;;;5010534;28;100228;-69
2022/12/06 07:08:50;;;;;;;7.65;2.30;;;;;;;;;;5010147;28;99464;-68
2022/12/06 07:11:16;;;;;;;6.28;2.03;;;;;;;;;;5018935;28;99881;-69
2022/12/06 07:13:42;;;;;;;4.57;2.20;;;;;;;;;;5022003;27;99775;-68
2022/12/06 07:16:16;;;;;;;4.38;2.03;;;;;;;;;;5016105;27;98586;-67
2022/12/06 07:18:42;;;;;;;7.45;2.75;;;;;;;;;;5003268;28;99313;-68
2022/12/06 07:21:11;;;;;;;13.38;2.22;;;;;;;;;;5008467;28;100657;-67
2022/12/06 07:23:37;;;;;;;8.35;2.20;;;;;;;;;;5016652;28;99358;-67
2022/12/06 07:26:05;;;;;;;5.15;1.90;;;;;;;;;;5013625;28;99390;-68
2022/12/06 07:28:33;;;;;;;6.93;2.70;;;;;;;;;;5010341;27;99679;-69
2022/12/06 07:31:06;;;;;;;2.70;2.05;;;;;;;;;;5018403;27;98567;-69
2022/12/06 07:33:32;;;;;;;4.18;2.08;;;;;;;;;;5019397;27;99711;-68
2022/12/06 07:35:59;;;;;;;10.43;2.60;;;;;;;;;;5008784;27;98265;-69
2022/12/06 07:38:41;;;;;;;5.97;2.13;;;;;;;;;;5007083;27;98997;-69
2022/12/06 07:46:42;;;;;;;8.88;1.95;;;;;;;;;;5008417;28;99928;-70
2022/12/06 07:49:08;;;;;;;3.53;2.20;;;;;;;;;;5012575;28;99844;-70
2022/12/06 07:51:35;;;;;;;6.85;1.80;;;;;;;;;;5018907;28;98577;-68
2022/12/06 07:54:01;;;;;;;3.83;1.60;;;;;;;;;;5033390;27;99124;-69
2022/12/06 07:56:28;;;;;;;8.32;2.13;;;;;;;;;;5027729;27;98555;-68
2022/12/06 07:58:54;;;;;;;5.68;2.20;;;;;;;;;;5009918;28;99103;-65
2022/12/06 08:01:22;;;;;;;1.95;1.73;;;;;;;;;;5004494;28;98968;-69
2022/12/06 08:03:49;;;;;;;8.20;2.22;;;;;;;;;;5029391;28;98610;-69
2022/12/06 08:06:15;;;;;;;2.95;1.48;;;;;;;;;;5018176;27;100128;-69
2022/12/06 08:08:41;;;;;;;6.47;2.47;;;;;;;;;;5027972;27;100523;-69
2022/12/06 08:11:08;;;;;;;7.25;2.47;;;;;;;;;;5029936;27;98478;-69
2022/12/06 08:13:34;;;;;;;7.30;2.42;;;;;;;;;;5029598;27;99254;-68
2022/12/06 08:16:07;;;;;;;4.70;2.13;;;;;;;;;;5026884;27;99483;-68
2022/12/06 08:18:34;;;;;;;3.10;2.10;;;;;;;;;;5027427;28;100634;-69
2022/12/06 08:21:00;;;;;;;10.02;2.05;;;;;;;;;;5029659;27;99556;-68
2022/12/06 08:23:26;;;;;;;5.15;2.28;;;;;;;;;;5030412;28;98916;-69
2022/12/06 08:26:00;;;;;;;7.07;2.15;;;;;;;;;;5020907;28;99513;-70
2022/12/06 08:28:27;;;;;;;7.15;1.90;;;;;;;;;;5007882;27;99822;-69
2022/12/06 08:30:53;;;;;;;5.85;2.28;;;;;;;;;;4989981;28;98588;-70
2022/12/06 08:33:28;;;;;;;4.53;2.10;;;;;;;;;;4989477;28;99402;-70
2022/12/06 08:35:54;;;;;;;8.77;2.25;;;;;;;;;;5005997;28;99807;-70
2022/12/06 08:38:20;;;;;;;2.33;1.65;;;;;;;;;;5011380;28;98764;-69
2022/12/06 08:40:46;;;;;;;5.78;2.17;;;;;;;;;;5008804;28;99418;-69
2022/12/06 08:43:13;;;;;;;7.35;2.40;;;;;;;;;;5026722;27;98610;-70
2022/12/06 08:45:39;;;;;;;6.15;2.08;;;;;;;;;;5015037;28;102664;-69
2022/12/06 08:48:05;;;;;;;5.22;2.20;;;;;;;;;;5009176;28;98688;-70
2022/12/06 08:50:32;;;;;;;3.33;2.10;;;;;;;;;;5010407;28;98133;-70
2022/12/06 08:52:58;;;;;;;9.05;3.05;;;;;;;;;;5010302;27;98981;-69
2022/12/06 08:55:24;;;;;;;7.57;3.58;;;;;;;;;;5011768;28;99489;-70
2022/12/06 08:57:51;;;;;;;5.35;2.42;;;;;;;;;;5015582;28;99229;-69
2022/12/06 09:00:17;;;;;;;10.70;2.70;;;;;;;;;;5014303;28;100568;-68
2022/12/06 09:02:43;;;;;;;4.13;2.72;;;;;;;;;;5012807;28;100168;-69
2022/12/06 09:05:10;;;;;;;6.28;3.03;;;;;;;;;;5031239;27;99219;-70
2022/12/06 09:07:36;;;;;;;2.75;2.10;;;;;;;;;;5032245;27;99502;-69
2022/12/06 09:10:04;;;;;;;5.40;2.63;;;;;;;;;;5029003;27;98689;-70
2022/12/06 09:12:30;;;;;;;5.88;2.60;;;;;;;;;;5032976;27;99370;-69
2022/12/06 09:14:56;;;;;;;13.73;2.75;;;;;;;;;;5033086;27;100115;-69
2022/12/06 09:17:23;;;;;;;5.25;2.45;;;;;;;;;;5020252;28;98558;-69
2022/12/06 09:19:49;;;;;;;4.00;2.30;;;;;;;;;;5021202;28;99924;-70
2022/12/06 09:22:15;;;;;;;6.82;2.10;;;;;;;;;;5029833;27;99331;-69
2022/12/06 09:24:42;;;;;;;4.35;2.17;;;;;;;;;;5029487;27;100202;-68
2022/12/06 09:27:08;;;;;;;6.10;2.38;;;;;;;;;;5010801;28;99498;-71
2022/12/06 09:29:36;;;;;;;3.20;2.03;;;;;;;;;;5022333;28;99062;-69
2022/12/06 09:32:06;;;;;;;3.00;1.88;;;;;;;;;;5029796;27;100606;-69
2022/12/06 09:34:32;;;;;;;2.38;2.17;;;;;;;;;;5031633;27;99514;-70
2022/12/06 09:37:02;;;;;;;2.67;1.85;;;;;;;;;;5012887;28;98649;-69
2022/12/06 09:39:30;;;;;;;4.60;1.98;;;;;;;;;;4998672;28;100703;-70
2022/12/06 09:42:03;;;;;;;6.65;2.00;;;;;;;;;;5014102;28;100468;-68
2022/12/06 09:44:47;;;;;;;3.67;2.10;;;;;;;;;;5004069;27;99153;-68
2022/12/06 09:47:22;;;;;;;7.65;2.25;;;;;;;;;;5010819;28;100137;-68
2022/12/06 09:50:02;;;;;;;3.63;2.22;;;;;;;;;;5009164;28;98546;-70
2022/12/06 09:52:29;;;;;;;2.50;1.90;;;;;;;;;;5027528;27;99338;-68
2022/12/06 09:55:10;;;;;;;3.15;1.58;;;;;;;;;;5014946;27;99487;-69
2022/12/06 09:57:41;;;;;;;6.45;1.83;;;;;;;;;;5009257;28;98810;-68
2022/12/06 10:00:07;;;;;;;;;;;;;;;;;;5024218;28;99562;-69
2022/12/06 10:02:49;;;;;;;7.20;1.63;;;;;;;;;;5028905;28;130140;-69
2022/12/06 10:05:15;;;;;;;2.40;1.33;;;;;;;;;;5031516;27;97876;-69
2022/12/06 10:07:54;;;;;;;8.57;1.50;;;;;;;;;;5028639;27;99515;-69
2022/12/06 10:10:28;;;;;;;9.25;1.67;;;;;;;;;;5020334;27;98559;-69
2022/12/06 10:12:55;;;;;;;4.70;1.45;;;;;;;;;;5020227;28;99314;-69
2022/12/06 10:15:37;;;;;;;7.35;2.22;;;;;;;;;;5025525;28;99554;-70
2022/12/06 10:18:22;;;;;;;1.88;1.35;;;;;;;;;;5009778;28;98705;-69
2022/12/06 10:20:51;;;;;;;5.43;1.45;;;;;;;;;;5012899;28;99146;-69
2022/12/06 10:23:28;;;;;;;3.58;1.38;;;;;;;;;;5031263;27;98450;-70
2022/12/06 10:26:14;;;;;;;8.77;1.85;;;;;;;;;;5026087;27;98531;-69
2022/12/06 10:28:40;;;;;;;6.38;1.60;;;;;;;;;;5025301;27;99462;-70
2022/12/06 10:31:20;;;;;;;4.25;1.42;;;;;;;;;;5011847;28;98015;-70
2022/12/06 10:33:49;;;;;;;8.05;1.50;;;;;;;;;;5003660;28;99370;-69
2022/12/06 10:36:17;;;;;;;5.90;1.80;;;;;;;;;;5020665;28;99539;-69
2022/12/06 10:38:47;;;;;;;10.43;2.35;;;;;;;;;;5030857;27;100502;-69
2022/12/06 10:41:13;;;;;;;11.55;3.10;;;;;;;;;;5020144;27;100140;-70
2022/12/06 10:43:45;;;;;;;7.93;1.55;;;;;;;;;;5010056;28;99746;-70
2022/12/06 10:49:00;;;;;;;5.15;2.92;;;;;;;;;;5028504;28;99489;-70
2022/12/06 10:51:40;;;;;;;7.80;2.15;;;;;;;;;;4994226;28;99524;-70
2022/12/06 10:54:12;;;;;;;5.47;1.97;;;;;;;;;;5007108;28;100259;-70
2022/12/06 10:56:40;;;;;;;8.20;1.98;;;;;;;;;;5008993;28;99707;-70
2022/12/06 10:59:15;;;;;;;6.47;2.38;;;;;;;;;;5009760;28;98510;-69
2022/12/06 11:01:42;;;;;;;6.85;3.20;;;;;;;;;;5020854;28;99184;-70
2022/12/06 11:04:11;;;;;;;4.43;2.80;;;;;;;;;;5006965;28;100376;-70
2022/12/06 11:06:44;;;;;;;8.27;2.83;;;;;;;;;;4993555;28;98712;-70
2022/12/06 11:09:27;;;;;;;4.85;2.20;;;;;;;;;;5009792;28;99462;-69
2022/12/06 11:11:53;;;;;;;6.03;3.00;;;;;;;;;;5012799;28;99658;-70
2022/12/06 11:14:31;;;;;;;5.40;2.63;;;;;;;;;;5012246;28;100160;-69
2022/12/06 11:17:03;;;;;;;13.60;7.70;;;;;;;;;;5022060;27;99504;-70
2022/12/06 11:19:33;;;;;;;9.48;4.72;;;;;;;;;;5024115;28;99272;-69
2022/12/06 11:22:03;;;;;;;8.90;3.40;;;;;;;;;;5027509;28;99210;-70
2022/12/06 11:24:31;;;;;;;12.10;2.58;;;;;;;;;;5030359;27;99531;-69
2022/12/06 11:27:04;;;;;;;6.47;2.42;;;;;;;;;;5024676;27;98538;-69
2022/12/06 11:29:30;;;;;;;3.85;2.05;;;;;;;;;;5027013;27;101227;-70
2022/12/06 11:32:06;;;;;;;7.10;2.40;;;;;;;;;;5022153;27;99000;-70
2022/12/06 11:34:35;;;;;;;5.97;2.38;;;;;;;;;;5012319;28;98570;-69
2022/12/06 11:37:03;;;;;;;5.28;2.63;;;;;;;;;;5005411;28;100358;-68
2022/12/06 11:39:30;;;;;;;7.55;2.63;;;;;;;;;;5021523;28;98586;-70
2022/12/06 11:41:58;;;;;;;4.82;2.33;;;;;;;;;;5010051;28;102687;-70
2022/12/06 11:44:26;;;;;;;8.80;2.30;;;;;;;;;;5008078;28;99647;-70
2022/12/06 11:46:54;;;;;;;11.30;2.90;;;;;;;;;;5016769;28;98300;-68
2022/12/06 11:49:26;;;;;;;5.22;2.90;;;;;;;;;;5025902;27;98939;-68
2022/12/06 11:51:53;;;;;;;8.32;2.40;;;;;;;;;;5012387;28;100696;-69
2022/12/06 11:54:25;;;;;;;11.32;2.50;;;;;;;;;;5029679;27;99558;-68
2022/12/06 11:56:51;;;;;;;10.32;3.45;;;;;;;;;;5033231;27;100233;-68
2022/12/06 11:59:23;;;;;;;9.10;3.15;;;;;;;;;;5009652;27;98899;-68
2022/12/06 12:01:51;;;;;;;6.55;3.17;;;;;;;;;;5004831;28;99377;-69
2022/12/06 12:04:36;;;;;;;6.53;3.38;;;;;;;;;;5002415;28;100485;-68
2022/12/06 12:07:08;;;;;;;5.95;3.10;;;;;;;;;;4996629;28;101569;-69
2022/12/06 12:09:54;;;;;;;8.15;3.47;;;;;;;;;;5007650;28;99385;-69
2022/12/06 12:12:22;;;;;;;6.55;3.08;;;;;;;;;;5007381;28;98854;-67
2022/12/06 12:14:57;;;;;;;5.68;2.75;;;;;;;;;;5005185;28;98917;-68
2022/12/06 12:17:28;;;;;;;8.68;3.17;;;;;;;;;;4989529;28;99154;-68
2022/12/06 12:19:58;;;;;;;7.50;3.60;;;;;;;;;;4992359;28;100308;-68
2022/12/06 12:22:34;;;;;;;8.68;3.47;;;;;;;;;;5005998;28;100344;-68
2022/12/06 12:25:01;;;;;;;9.20;3.55;;;;;;;;;;5009007;28;99523;-69
2022/12/06 12:27:46;;;;;;;11.25;3.83;;;;;;;;;;5013229;28;98990;-67
2022/12/06 12:30:17;;;;;;;6.43;3.13;;;;;;;;;;5012343;28;99355;-67
2022/12/06 12:32:45;;;;;;;5.88;2.75;;;;;;;;;;5027034;27;99491;-68
2022/12/06 12:35:20;;;;;;;7.03;3.13;;;;;;;;;;5019510;27;98778;-68
2022/12/06 12:37:51;;;;;;;4.18;2.75;;;;;;;;;;4993691;28;99408;-68
2022/12/06 12:40:17;;;;;;;;;;;;;;;;;;5007588;28;99500;-68
2022/12/06 12:42:44;;;;;;;6.50;3.03;;;;;;;;;;5037324;28;118412;-69
2022/12/06 12:45:16;;;;;;;9.07;3.08;;;;;;;;;;5022178;27;101343;-70
2022/12/06 12:47:54;;;;;;;12.40;3.08;;;;;;;;;;5011910;28;98612;-69
2022/12/06 12:50:22;;;;;;;4.93;2.63;;;;;;;;;;5008925;28;99128;-69
2022/12/06 12:52:49;;;;;;;8.35;2.72;;;;;;;;;;5001816;28;99809;-69
2022/12/06 12:55:36;;;;;;;5.47;2.83;;;;;;;;;;5011051;28;98613;-69
2022/12/06 12:58:08;;;;;;;10.10;2.92;;;;;;;;;;5010839;28;99671;-69
2022/12/06 13:00:36;;;;;;;4.82;2.30;;;;;;;;;;5015152;28;100274;-68
2022/12/06 13:03:12;;;;;;;9.35;3.33;;;;;;;;;;5030537;28;99544;-69
2022/12/06 13:05:58;;;;;;;6.50;2.88;;;;;;;;;;5020416;28;99858;-69
2022/12/06 13:08:30;;;;;;;7.80;2.30;;;;;;;;;;5010208;28;98636;-69
2022/12/06 13:10:57;;;;;;;6.03;2.53;;;;;;;;;;5032079;27;99451;-69
2022/12/06 13:13:43;;;;;;;3.85;2.03;;;;;;;;;;5031322;27;100932;-70
2022/12/06 13:16:11;;;;;;;38.65;3.45;;;;;;;;;;5015181;27;98824;-69
2022/12/06 13:18:41;;;;;;;3.35;1.95;;;;;;;;;;5008904;28;100389;-69
2022/12/06 13:21:16;;;;;;;3.45;2.08;;;;;;;;;;5011401;28;99505;-69
2022/12/06 13:23:44;;;;;;;5.10;1.95;;;;;;;;;;5011425;28;98780;-69
2022/12/06 13:26:13;;;;;;;8.20;2.00;;;;;;;;;;5020287;28;99529;-69
2022/12/06 13:28:42;;;;;;;5.10;2.67;;;;;;;;;;5026497;27;99711;-69
2022/12/06 13:31:17;;;;;;;6.50;2.40;;;;;;;;;;5031263;27;98794;-69
2022/12/06 13:33:49;;;;;;;4.80;2.15;;;;;;;;;;5027715;27;100149;-69
2022/12/06 13:36:16;;;;;;;7.78;2.35;;;;;;;;;;5012542;27;99888;-69
2022/12/06 13:38:43;;;;;;;8.52;2.28;;;;;;;;;;5025674;27;99916;-70
2022/12/06 13:42:16;;;;;;;4.40;2.28;;;;;;;;;;5029833;27;99534;-69
2022/12/06 13:44:32;;;;;;;9.98;2.38;;;;;;;;;;5031549;27;98526;-69
2022/12/06 13:47:34;;;;;;;5.18;2.47;;;;;;;;;;5014403;28;99930;-70
2022/12/06 13:50:02;;;;;;;8.38;2.45;;;;;;;;;;5024019;28;100019;-69
2022/12/06 13:52:49;;;;;;;4.55;2.17;;;;;;;;;;5010123;28;99173;-68
2022/12/06 13:55:25;;;;;;;4.32;1.92;;;;;;;;;;5003363;27;99833;-70
2022/12/06 13:57:54;;;;;;;6.18;2.20;;;;;;;;;;5010157;28;98758;-69
2022/12/06 14:00:43;;;;;;;6.78;2.60;;;;;;;;;;5002066;28;99185;-68
2022/12/06 14:03:16;;;;;;;2.83;1.83;;;;;;;;;;5027915;28;100030;-68
2022/12/06 14:06:01;;;;;;;4.40;2.10;;;;;;;;;;5023728;27;98649;-69
2022/12/06 14:08:30;;;;;;;3.85;1.92;;;;;;;;;;5011589;28;100231;-69
2022/12/06 14:11:12;;;;;;;6.22;2.22;;;;;;;;;;5011128;28;99911;-69
2022/12/06 14:13:38;;;;;;;6.38;1.90;;;;;;;;;;5014723;28;98496;-69
2022/12/06 14:16:06;;;;;;;6.20;2.10;;;;;;;;;;5013437;28;99794;-69
2022/12/06 14:18:32;;;;;;;7.50;2.20;;;;;;;;;;5015629;27;98547;-69
2022/12/06 14:21:00;;;;;;;10.75;2.40;;;;;;;;;;5011624;28;99159;-69
2022/12/06 14:23:28;;;;;;;5.50;1.60;;;;;;;;;;5011081;27;100489;-68
2022/12/06 14:26:30;;;;;;;2.55;1.55;;;;;;;;;;5028726;27;98930;-69
2022/12/06 14:28:58;;;;;;;7.65;1.83;;;;;;;;;;4969812;28;101028;-69
2022/12/06 14:31:24;;;;;;;6.25;2.30;;;;;;;;;;4968552;28;99802;-69
2022/12/06 14:33:51;;;;;;;7.22;2.13;;;;;;;;;;4973366;28;99376;-70
2022/12/06 14:36:20;;;;;;;6.10;2.38;;;;;;;;;;4988058;28;99174;-71
2022/12/06 14:38:51;;;;;;;7.05;2.22;;;;;;;;;;4982040;28;98780;-70
2022/12/06 14:44:15;;;;;;;8.63;2.60;;;;;;;;;;4986629;28;99577;-71
2022/12/06 14:46:43;;;;;;;7.82;2.70;;;;;;;;;;4991010;28;98277;-70
2022/12/06 14:51:57;;;;;;;8.93;3.47;;;;;;;;;;4979856;28;99535;-70
2022/12/06 14:54:26;;;;;;;6.18;3.30;;;;;;;;;;4993020;28;99666;-70
2022/12/06 14:56:52;;;;;;;14.73;3.30;;;;;;;;;;4995266;28;99979;-69
2022/12/06 14:59:19;;;;;;;5.03;2.83;;;;;;;;;;4989914;28;100035;-69
2022/12/06 15:02:22;;;;;;;8.63;3.08;;;;;;;;;;4976736;28;99347;-68
2022/12/06 15:04:49;;;;;;;6.90;3.20;;;;;;;;;;5002671;28;99829;-69
2022/12/06 15:07:29;;;;;;;7.40;3.38;;;;;;;;;;5011143;28;98958;-69
2022/12/06 15:09:55;;;;;;;6.10;3.03;;;;;;;;;;5010418;28;99109;-69
2022/12/06 15:15:25;;;;;;;7.82;3.67;;;;;;;;;;5005700;27;98903;-69
2022/12/06 15:17:52;;;;;;;8.38;4.80;;;;;;;;;;5008467;28;98981;-69
2022/12/06 15:20:18;;;;;;;8.43;3.28;;;;;;;;;;4989213;28;100243;-69
2022/12/06 15:22:45;;;;;;;4.97;3.10;;;;;;;;;;4993685;28;98519;-69
2022/12/06 15:25:12;;;;;;;48.88;8.52;;;;;;;;;;5008806;28;99714;-69
2022/12/06 15:27:39;;;;;;;60.22;8.68;;;;;;;;;;5028753;27;98580;-69
2022/12/06 15:30:06;;;;;;;23.42;5.05;;;;;;;;;;5014862;27;99548;-70